Sanquhar, United Kingdom
Current Conditions -  °F | °C
As of 8:50 PM on Tuesday 27 Jan 2015 (Local Time) from EGPK Reporting Station
Light Rain Light Rain  
Wind Chill: 36°   Ceiling: 1900
Heat Index: 43°   Visibility: 4mi
Dew Point: 41°   Wind: 13mph
Humidity: 93%   Direction: 190°S
Pressure: 29.88"   Gusts: NA
Location:  55.37°N, 3.92°W
Report Text: EGPK 272050Z 19011KT 6000 -RA SCT003 BKN019 06/05 Q1012
Loading
Personal Weather Stations






























Interactive Weather Map New forecast layout! Learn more

10-Day Weather Forecast

Advertisements
Track Severe Weather on mobile